sensor_id;sensor_type;location;lat;lon;timestamp;temperature;humidity
26326;DHT22;14032;52.510;7.342;2022-09-13T00:00:36;18.20;99.90
26326;DHT22;14032;52.510;7.342;2022-09-13T00:03:02;18.20;99.90
26326;DHT22;14032;52.510;7.342;2022-09-13T00:05:29;18.10;99.90
26326;DHT22;14032;52.510;7.342;2022-09-13T00:07:56;18.10;99.90
26326;DHT22;14032;52.510;7.342;2022-09-13T00:10:24;18.10;99.90
26326;DHT22;14032;52.510;7.342;2022-09-13T00:12:51;18.10;99.90
26326;DHT22;14032;52.510;7.342;2022-09-13T00:15:17;18.10;99.90
26326;DHT22;14032;52.510;7.342;2022-09-13T00:17:42;18.10;99.90
26326;DHT22;14032;52.510;7.342;2022-09-13T00:20:08;18.10;99.90
26326;DHT22;14032;52.510;7.342;2022-09-13T00:22:34;18.10;99.90
26326;DHT22;14032;52.510;7.342;2022-09-13T00:25:01;18.10;99.90
26326;DHT22;14032;52.510;7.342;2022-09-13T00:27:27;18.10;99.90
26326;DHT22;14032;52.510;7.342;2022-09-13T00:29:52;18.10;99.90
26326;DHT22;14032;52.510;7.342;2022-09-13T00:32:18;18.10;99.90
26326;DHT22;14032;52.510;7.342;2022-09-13T00:34:44;18.00;99.90
26326;DHT22;14032;52.510;7.342;2022-09-13T00:37:09;18.00;99.90
26326;DHT22;14032;52.510;7.342;2022-09-13T00:39:35;18.00;99.90
26326;DHT22;14032;52.510;7.342;2022-09-13T00:42:01;17.90;99.90
26326;DHT22;14032;52.510;7.342;2022-09-13T00:44:52;17.90;99.90
26326;DHT22;14032;52.510;7.342;2022-09-13T00:48:01;17.80;99.90
26326;DHT22;14032;52.510;7.342;2022-09-13T00:50:40;17.80;99.90
26326;DHT22;14032;52.510;7.342;2022-09-13T00:53:14;17.70;99.90
26326;DHT22;14032;52.510;7.342;2022-09-13T00:55:45;17.70;99.90
26326;DHT22;14032;52.510;7.342;2022-09-13T00:58:15;17.70;99.90
26326;DHT22;14032;52.510;7.342;2022-09-13T01:00:43;17.60;99.90
26326;DHT22;14032;52.510;7.342;2022-09-13T01:03:11;17.60;99.90
26326;DHT22;14032;52.510;7.342;2022-09-13T01:05:43;17.50;99.90
26326;DHT22;14032;52.510;7.342;2022-09-13T01:08:11;17.50;99.90
26326;DHT22;14032;52.510;7.342;2022-09-13T01:10:41;17.50;99.90
26326;DHT22;14032;52.510;7.342;2022-09-13T01:13:22;17.40;99.90
26326;DHT22;14032;52.510;7.342;2022-09-13T01:15:50;17.40;99.90
26326;DHT22;14032;52.510;7.342;2022-09-13T01:18:16;17.50;99.90
26326;DHT22;14032;52.510;7.342;2022-09-13T01:24:02;17.50;99.90
26326;DHT22;14032;52.510;7.342;2022-09-13T01:30:19;17.40;99.90
26326;DHT22;14032;52.510;7.342;2022-09-13T01:33:09;17.30;99.90
26326;DHT22;14032;52.510;7.342;2022-09-13T01:35:58;17.30;99.90
26326;DHT22;14032;52.510;7.342;2022-09-13T01:47:05;17.20;99.90
26326;DHT22;14032;52.510;7.342;2022-09-13T01:50:21;17.10;99.90
26326;DHT22;14032;52.510;7.342;2022-09-13T01:53:06;17.10;99.90
26326;DHT22;14032;52.510;7.342;2022-09-13T01:55:47;17.10;99.90
26326;DHT22;14032;52.510;7.342;2022-09-13T01:58:23;17.10;99.90
26326;DHT22;14032;52.510;7.342;2022-09-13T02:01:14;17.10;99.90
26326;DHT22;14032;52.510;7.342;2022-09-13T02:03:52;17.10;99.90
26326;DHT22;14032;52.510;7.342;2022-09-13T02:06:25;17.10;99.90
26326;DHT22;14032;52.510;7.342;2022-09-13T02:09:07;17.10;99.90
26326;DHT22;14032;52.510;7.342;2022-09-13T02:11:34;17.10;99.90
26326;DHT22;14032;52.510;7.342;2022-09-13T02:14:13;17.10;99.90
26326;DHT22;14032;52.510;7.342;2022-09-13T02:16:53;17.10;99.90
26326;DHT22;14032;52.510;7.342;2022-09-13T02:19:25;17.00;99.90
26326;DHT22;14032;52.510;7.342;2022-09-13T02:21:56;17.00;99.90
26326;DHT22;14032;52.510;7.342;2022-09-13T02:24:30;17.00;99.90
26326;DHT22;14032;52.510;7.342;2022-09-13T02:27:00;17.00;99.90
26326;DHT22;14032;52.510;7.342;2022-09-13T02:29:28;17.00;99.90
26326;DHT22;14032;52.510;7.342;2022-09-13T02:32:06;17.00;99.90
26326;DHT22;14032;52.510;7.342;2022-09-13T02:37:25;16.90;99.90
26326;DHT22;14032;52.510;7.342;2022-09-13T02:39:56;17.00;99.90
26326;DHT22;14032;52.510;7.342;2022-09-13T02:42:41;16.90;99.90
26326;DHT22;14032;52.510;7.342;2022-09-13T02:45:09;16.90;99.90
26326;DHT22;14032;52.510;7.342;2022-09-13T02:47:58;16.90;99.90
26326;DHT22;14032;52.510;7.342;2022-09-13T02:58:33;16.90;99.90
26326;DHT22;14032;52.510;7.342;2022-09-13T03:01:05;16.90;99.90
26326;DHT22;14032;52.510;7.342;2022-09-13T03:03:30;16.90;99.90
26326;DHT22;14032;52.510;7.342;2022-09-13T03:05:56;16.90;99.90
26326;DHT22;14032;52.510;7.342;2022-09-13T03:08:22;16.90;99.90
26326;DHT22;14032;52.510;7.342;2022-09-13T03:11:15;16.90;99.90
26326;DHT22;14032;52.510;7.342;2022-09-13T03:14:07;17.00;99.90
26326;DHT22;14032;52.510;7.342;2022-09-13T03:19:48;17.00;99.90
26326;DHT22;14032;52.510;7.342;2022-09-13T03:22:32;17.00;99.90
26326;DHT22;14032;52.510;7.342;2022-09-13T03:25:36;17.00;99.90
26326;DHT22;14032;52.510;7.342;2022-09-13T03:28:14;17.00;99.90
26326;DHT22;14032;52.510;7.342;2022-09-13T03:30:47;17.00;99.90
26326;DHT22;14032;52.510;7.342;2022-09-13T03:33:37;17.00;99.90
26326;DHT22;14032;52.510;7.342;2022-09-13T03:36:13;17.00;99.90
26326;DHT22;14032;52.510;7.342;2022-09-13T03:38:59;17.10;99.90
26326;DHT22;14032;52.510;7.342;2022-09-13T03:41:32;17.10;99.90
26326;DHT22;14032;52.510;7.342;2022-09-13T03:44:02;17.10;99.90
26326;DHT22;14032;52.510;7.342;2022-09-13T03:46:37;17.10;99.90
26326;DHT22;14032;52.510;7.342;2022-09-13T03:49:06;17.10;99.90
26326;DHT22;14032;52.510;7.342;2022-09-13T03:51:33;17.10;99.90
26326;DHT22;14032;52.510;7.342;2022-09-13T03:54:03;17.10;99.90
26326;DHT22;14032;52.510;7.342;2022-09-13T03:56:29;17.10;99.90
26326;DHT22;14032;52.510;7.342;2022-09-13T03:58:55;17.10;99.90
26326;DHT22;14032;52.510;7.342;2022-09-13T04:01:22;17.20;99.90
26326;DHT22;14032;52.510;7.342;2022-09-13T04:03:48;17.20;99.90
26326;DHT22;14032;52.510;7.342;2022-09-13T04:06:14;17.20;99.90
26326;DHT22;14032;52.510;7.342;2022-09-13T04:08:40;17.20;99.90
26326;DHT22;14032;52.510;7.342;2022-09-13T04:11:06;17.20;99.90
26326;DHT22;14032;52.510;7.342;2022-09-13T04:13:33;17.30;99.90
26326;DHT22;14032;52.510;7.342;2022-09-13T04:16:03;17.30;99.90
26326;DHT22;14032;52.510;7.342;2022-09-13T04:18:30;17.20;99.90
26326;DHT22;14032;52.510;7.342;2022-09-13T04:20:57;17.30;99.90
26326;DHT22;14032;52.510;7.342;2022-09-13T04:23:23;17.30;99.90
26326;DHT22;14032;52.510;7.342;2022-09-13T04:25:49;17.30;99.90
26326;DHT22;14032;52.510;7.342;2022-09-13T04:28:16;17.30;99.90
26326;DHT22;14032;52.510;7.342;2022-09-13T04:30:46;17.30;99.90
26326;DHT22;14032;52.510;7.342;2022-09-13T04:33:13;17.30;99.90
26326;DHT22;14032;52.510;7.342;2022-09-13T04:35:40;17.30;99.90
26326;DHT22;14032;52.510;7.342;2022-09-13T04:38:06;17.30;99.90
26326;DHT22;14032;52.510;7.342;2022-09-13T04:40:32;17.30;99.90
26326;DHT22;14032;52.510;7.342;2022-09-13T04:43:00;17.20;99.90
26326;DHT22;14032;52.510;7.342;2022-09-13T04:45:38;17.30;99.90
26326;DHT22;14032;52.510;7.342;2022-09-13T04:48:04;17.30;99.90
26326;DHT22;14032;52.510;7.342;2022-09-13T04:50:30;17.30;99.90
26326;DHT22;14032;52.510;7.342;2022-09-13T04:53:12;17.20;99.90
26326;DHT22;14032;52.510;7.342;2022-09-13T04:55:55;17.20;99.90
26326;DHT22;14032;52.510;7.342;2022-09-13T04:58:24;17.20;99.90
26326;DHT22;14032;52.510;7.342;2022-09-13T05:00:50;17.20;99.90
26326;DHT22;14032;52.510;7.342;2022-09-13T05:03:23;17.20;99.90
26326;DHT22;14032;52.510;7.342;2022-09-13T05:05:49;17.20;99.90
26326;DHT22;14032;52.510;7.342;2022-09-13T05:08:14;17.20;99.90
26326;DHT22;14032;52.510;7.342;2022-09-13T05:10:40;17.30;99.90
26326;DHT22;14032;52.510;7.342;2022-09-13T05:13:05;17.20;99.90
26326;DHT22;14032;52.510;7.342;2022-09-13T05:15:31;17.30;99.90
26326;DHT22;14032;52.510;7.342;2022-09-13T05:17:57;17.30;99.90
26326;DHT22;14032;52.510;7.342;2022-09-13T05:20:22;17.30;99.90
26326;DHT22;14032;52.510;7.342;2022-09-13T05:22:48;17.30;99.90
26326;DHT22;14032;52.510;7.342;2022-09-13T05:25:13;17.30;99.90
26326;DHT22;14032;52.510;7.342;2022-09-13T05:27:39;17.30;99.90
26326;DHT22;14032;52.510;7.342;2022-09-13T05:30:05;17.30;99.90
26326;DHT22;14032;52.510;7.342;2022-09-13T05:32:31;17.30;99.90
26326;DHT22;14032;52.510;7.342;2022-09-13T05:34:56;17.30;99.90
26326;DHT22;14032;52.510;7.342;2022-09-13T05:37:22;17.30;99.90
26326;DHT22;14032;52.510;7.342;2022-09-13T05:39:48;17.30;99.90
26326;DHT22;14032;52.510;7.342;2022-09-13T05:42:13;17.30;99.90
26326;DHT22;14032;52.510;7.342;2022-09-13T05:44:39;17.30;99.90
26326;DHT22;14032;52.510;7.342;2022-09-13T05:47:04;17.30;99.90
26326;DHT22;14032;52.510;7.342;2022-09-13T05:49:30;17.30;99.90
26326;DHT22;14032;52.510;7.342;2022-09-13T05:51:56;17.30;99.90
26326;DHT22;14032;52.510;7.342;2022-09-13T05:54:21;17.30;99.90
26326;DHT22;14032;52.510;7.342;2022-09-13T05:56:47;17.30;99.90
26326;DHT22;14032;52.510;7.342;2022-09-13T05:59:13;17.30;99.90
26326;DHT22;14032;52.510;7.342;2022-09-13T06:01:41;17.40;99.90
26326;DHT22;14032;52.510;7.342;2022-09-13T06:04:07;17.40;99.90
26326;DHT22;14032;52.510;7.342;2022-09-13T06:06:33;17.40;99.90
26326;DHT22;14032;52.510;7.342;2022-09-13T06:08:59;17.40;99.90
26326;DHT22;14032;52.510;7.342;2022-09-13T06:11:26;17.40;99.90
26326;DHT22;14032;52.510;7.342;2022-09-13T06:13:52;17.40;99.90
26326;DHT22;14032;52.510;7.342;2022-09-13T06:16:18;17.40;99.90
26326;DHT22;14032;52.510;7.342;2022-09-13T06:18:44;17.30;99.90
26326;DHT22;14032;52.510;7.342;2022-09-13T06:21:12;17.40;99.90
26326;DHT22;14032;52.510;7.342;2022-09-13T06:23:43;17.40;99.90
26326;DHT22;14032;52.510;7.342;2022-09-13T06:26:11;17.40;99.90
26326;DHT22;14032;52.510;7.342;2022-09-13T06:28:37;17.40;99.90
26326;DHT22;14032;52.510;7.342;2022-09-13T06:31:12;17.40;99.90
26326;DHT22;14032;52.510;7.342;2022-09-13T06:33:40;17.40;99.90
26326;DHT22;14032;52.510;7.342;2022-09-13T06:36:11;17.40;99.90
26326;DHT22;14032;52.510;7.342;2022-09-13T06:38:39;17.40;99.90
26326;DHT22;14032;52.510;7.342;2022-09-13T06:41:07;17.40;99.90
26326;DHT22;14032;52.510;7.342;2022-09-13T06:43:33;17.50;99.90
26326;DHT22;14032;52.510;7.342;2022-09-13T06:46:04;17.50;99.90
26326;DHT22;14032;52.510;7.342;2022-09-13T06:48:32;17.50;99.90
26326;DHT22;14032;52.510;7.342;2022-09-13T06:50:59;17.50;99.90
26326;DHT22;14032;52.510;7.342;2022-09-13T06:53:25;17.50;99.90
26326;DHT22;14032;52.510;7.342;2022-09-13T06:56:13;17.60;99.90
26326;DHT22;14032;52.510;7.342;2022-09-13T06:58:42;17.50;99.90
26326;DHT22;14032;52.510;7.342;2022-09-13T07:01:10;17.60;99.90
26326;DHT22;14032;52.510;7.342;2022-09-13T07:03:42;17.50;99.90
26326;DHT22;14032;52.510;7.342;2022-09-13T07:06:24;17.50;99.90
26326;DHT22;14032;52.510;7.342;2022-09-13T07:08:52;17.50;99.90
26326;DHT22;14032;52.510;7.342;2022-09-13T07:11:19;17.50;99.90
26326;DHT22;14032;52.510;7.342;2022-09-13T07:13:49;17.50;99.90
26326;DHT22;14032;52.510;7.342;2022-09-13T07:16:15;17.50;99.90
26326;DHT22;14032;52.510;7.342;2022-09-13T07:18:41;17.50;99.90
26326;DHT22;14032;52.510;7.342;2022-09-13T07:21:09;17.50;99.90
26326;DHT22;14032;52.510;7.342;2022-09-13T07:23:36;17.50;99.90
26326;DHT22;14032;52.510;7.342;2022-09-13T07:26:04;17.50;99.90
26326;DHT22;14032;52.510;7.342;2022-09-13T07:28:36;17.40;99.90
26326;DHT22;14032;52.510;7.342;2022-09-13T07:31:06;17.40;99.90
26326;DHT22;14032;52.510;7.342;2022-09-13T07:33:32;17.50;99.90
26326;DHT22;14032;52.510;7.342;2022-09-13T07:35:58;17.50;99.90
26326;DHT22;14032;52.510;7.342;2022-09-13T07:38:25;17.50;99.90
26326;DHT22;14032;52.510;7.342;2022-09-13T07:40:56;17.50;99.90
26326;DHT22;14032;52.510;7.342;2022-09-13T07:43:23;17.60;99.90
26326;DHT22;14032;52.510;7.342;2022-09-13T07:45:56;17.50;99.90
26326;DHT22;14032;52.510;7.342;2022-09-13T07:48:22;17.50;99.90
26326;DHT22;14032;52.510;7.342;2022-09-13T07:53:28;17.60;99.90
26326;DHT22;14032;52.510;7.342;2022-09-13T07:56:20;17.60;99.90
26326;DHT22;14032;52.510;7.342;2022-09-13T07:58:46;17.70;99.90
26326;DHT22;14032;52.510;7.342;2022-09-13T08:01:20;17.70;99.90
26326;DHT22;14032;52.510;7.342;2022-09-13T08:06:19;17.70;99.90
26326;DHT22;14032;52.510;7.342;2022-09-13T08:08:45;17.80;99.90
26326;DHT22;14032;52.510;7.342;2022-09-13T08:11:17;17.90;99.90
26326;DHT22;14032;52.510;7.342;2022-09-13T08:13:44;17.90;99.90
26326;DHT22;14032;52.510;7.342;2022-09-13T08:16:10;18.00;99.90
26326;DHT22;14032;52.510;7.342;2022-09-13T08:18:36;18.00;99.90
26326;DHT22;14032;52.510;7.342;2022-09-13T08:21:02;18.00;99.90
26326;DHT22;14032;52.510;7.342;2022-09-13T08:23:28;18.00;99.90
26326;DHT22;14032;52.510;7.342;2022-09-13T08:25:54;18.10;99.90
26326;DHT22;14032;52.510;7.342;2022-09-13T08:28:24;18.10;99.90
26326;DHT22;14032;52.510;7.342;2022-09-13T08:30:50;18.20;99.90
26326;DHT22;14032;52.510;7.342;2022-09-13T08:33:15;18.30;99.90
26326;DHT22;14032;52.510;7.342;2022-09-13T08:35:49;18.40;99.90
26326;DHT22;14032;52.510;7.342;2022-09-13T08:38:14;18.40;99.90
26326;DHT22;14032;52.510;7.342;2022-09-13T08:40:42;18.40;99.90
26326;DHT22;14032;52.510;7.342;2022-09-13T08:43:35;18.40;99.90
26326;DHT22;14032;52.510;7.342;2022-09-13T08:46:15;18.40;99.90
26326;DHT22;14032;52.510;7.342;2022-09-13T08:48:46;18.40;99.90
26326;DHT22;14032;52.510;7.342;2022-09-13T08:51:39;18.40;99.90
26326;DHT22;14032;52.510;7.342;2022-09-13T08:54:10;18.30;99.90
26326;DHT22;14032;52.510;7.342;2022-09-13T08:56:45;18.30;99.90
26326;DHT22;14032;52.510;7.342;2022-09-13T09:02:15;18.30;99.90
26326;DHT22;14032;52.510;7.342;2022-09-13T09:07:33;18.40;99.90
26326;DHT22;14032;52.510;7.342;2022-09-13T09:10:10;18.40;99.90
26326;DHT22;14032;52.510;7.342;2022-09-13T09:12:52;18.50;99.90
26326;DHT22;14032;52.510;7.342;2022-09-13T09:15:25;18.50;99.90
26326;DHT22;14032;52.510;7.342;2022-09-13T09:26:18;18.60;99.90
26326;DHT22;14032;52.510;7.342;2022-09-13T09:28:54;18.60;99.90
26326;DHT22;14032;52.510;7.342;2022-09-13T09:39:38;18.60;99.90
26326;DHT22;14032;52.510;7.342;2022-09-13T09:42:18;18.50;99.90
26326;DHT22;14032;52.510;7.342;2022-09-13T09:44:55;18.60;99.90
26326;DHT22;14032;52.510;7.342;2022-09-13T09:47:24;18.60;99.90
26326;DHT22;14032;52.510;7.342;2022-09-13T09:52:43;18.80;99.90
26326;DHT22;14032;52.510;7.342;2022-09-13T10:00:18;18.70;99.90
26326;DHT22;14032;52.510;7.342;2022-09-13T10:02:45;18.60;99.90
26326;DHT22;14032;52.510;7.342;2022-09-13T10:05:17;18.60;99.90
26326;DHT22;14032;52.510;7.342;2022-09-13T10:07:52;18.50;99.90
26326;DHT22;14032;52.510;7.342;2022-09-13T10:10:31;18.50;99.90
26326;DHT22;14032;52.510;7.342;2022-09-13T10:13:01;18.60;99.90
26326;DHT22;14032;52.510;7.342;2022-09-13T10:15:29;18.70;99.90
26326;DHT22;14032;52.510;7.342;2022-09-13T10:18:13;18.80;99.90
26326;DHT22;14032;52.510;7.342;2022-09-13T10:20:40;19.10;99.90
26326;DHT22;14032;52.510;7.342;2022-09-13T10:25:43;19.20;99.90
26326;DHT22;14032;52.510;7.342;2022-09-13T10:28:14;19.10;99.90
26326;DHT22;14032;52.510;7.342;2022-09-13T10:31:02;19.20;99.90
26326;DHT22;14032;52.510;7.342;2022-09-13T10:38:39;19.70;99.90
26326;DHT22;14032;52.510;7.342;2022-09-13T10:41:25;19.90;99.90
26326;DHT22;14032;52.510;7.342;2022-09-13T10:44:02;20.10;99.90
26326;DHT22;14032;52.510;7.342;2022-09-13T10:46:31;20.20;99.90
26326;DHT22;14032;52.510;7.342;2022-09-13T10:48:58;20.40;99.90
26326;DHT22;14032;52.510;7.342;2022-09-13T10:54:23;20.20;99.90
26326;DHT22;14032;52.510;7.342;2022-09-13T10:56:49;20.10;99.90
26326;DHT22;14032;52.510;7.342;2022-09-13T10:59:28;20.00;99.90
26326;DHT22;14032;52.510;7.342;2022-09-13T11:02:19;20.10;99.90
26326;DHT22;14032;52.510;7.342;2022-09-13T11:10:06;20.50;99.90
26326;DHT22;14032;52.510;7.342;2022-09-13T11:16:31;20.80;99.90
26326;DHT22;14032;52.510;7.342;2022-09-13T11:26:47;20.90;99.90
26326;DHT22;14032;52.510;7.342;2022-09-13T11:29:32;20.70;99.90
26326;DHT22;14032;52.510;7.342;2022-09-13T11:32:06;20.60;99.90
26326;DHT22;14032;52.510;7.342;2022-09-13T11:37:14;20.40;99.90
26326;DHT22;14032;52.510;7.342;2022-09-13T11:42:45;20.40;99.90
26326;DHT22;14032;52.510;7.342;2022-09-13T11:45:23;20.40;99.90
26326;DHT22;14032;52.510;7.342;2022-09-13T11:56:09;20.40;99.90
26326;DHT22;14032;52.510;7.342;2022-09-13T11:58:46;20.50;99.90
26326;DHT22;14032;52.510;7.342;2022-09-13T12:01:29;20.50;99.90
26326;DHT22;14032;52.510;7.342;2022-09-13T12:06:42;20.70;99.90
26326;DHT22;14032;52.510;7.342;2022-09-13T12:09:24;20.70;99.90
26326;DHT22;14032;52.510;7.342;2022-09-13T12:11:57;20.70;99.90
26326;DHT22;14032;52.510;7.342;2022-09-13T12:14:31;20.70;99.90
26326;DHT22;14032;52.510;7.342;2022-09-13T12:17:05;20.70;99.90
26326;DHT22;14032;52.510;7.342;2022-09-13T12:19:44;20.60;99.90
26326;DHT22;14032;52.510;7.342;2022-09-13T12:22:12;20.60;99.90
26326;DHT22;14032;52.510;7.342;2022-09-13T12:24:42;20.60;99.90
26326;DHT22;14032;52.510;7.342;2022-09-13T12:30:15;20.60;99.90
26326;DHT22;14032;52.510;7.342;2022-09-13T12:32:43;20.60;99.90
26326;DHT22;14032;52.510;7.342;2022-09-13T12:35:19;20.60;99.90
26326;DHT22;14032;52.510;7.342;2022-09-13T12:56:57;20.70;99.90
26326;DHT22;14032;52.510;7.342;2022-09-13T13:02:33;20.70;99.90
26326;DHT22;14032;52.510;7.342;2022-09-13T13:07:53;20.60;99.90
26326;DHT22;14032;52.510;7.342;2022-09-13T13:10:33;20.60;99.90
26326;DHT22;14032;52.510;7.342;2022-09-13T13:23:31;20.60;99.90
26326;DHT22;14032;52.510;7.342;2022-09-13T13:26:00;20.70;99.90
26326;DHT22;14032;52.510;7.342;2022-09-13T13:38:55;20.70;99.90
26326;DHT22;14032;52.510;7.342;2022-09-13T13:46:41;20.70;99.90
26326;DHT22;14032;52.510;7.342;2022-09-13T13:55:04;20.70;99.90
26326;DHT22;14032;52.510;7.342;2022-09-13T13:58:02;20.70;99.90
26326;DHT22;14032;52.510;7.342;2022-09-13T14:00:32;20.60;99.90
26326;DHT22;14032;52.510;7.342;2022-09-13T14:05:30;20.60;99.90
26326;DHT22;14032;52.510;7.342;2022-09-13T14:19:27;20.60;99.90
26326;DHT22;14032;52.510;7.342;2022-09-13T14:25:26;20.70;99.90
26326;DHT22;14032;52.510;7.342;2022-09-13T14:27:32;20.70;99.90
26326;DHT22;14032;52.510;7.342;2022-09-13T14:30:02;20.70;99.90
26326;DHT22;14032;52.510;7.342;2022-09-13T14:32:31;20.70;99.90
26326;DHT22;14032;52.510;7.342;2022-09-13T14:35:17;20.70;99.90
26326;DHT22;14032;52.510;7.342;2022-09-13T14:37:45;20.60;99.90
26326;DHT22;14032;52.510;7.342;2022-09-13T14:40:19;20.60;99.90
26326;DHT22;14032;52.510;7.342;2022-09-13T14:42:47;20.50;99.90
26326;DHT22;14032;52.510;7.342;2022-09-13T14:45:19;20.50;99.90
26326;DHT22;14032;52.510;7.342;2022-09-13T14:47:58;20.50;99.90
26326;DHT22;14032;52.510;7.342;2022-09-13T14:50:30;20.50;99.90
26326;DHT22;14032;52.510;7.342;2022-09-13T14:53:01;20.50;99.90
26326;DHT22;14032;52.510;7.342;2022-09-13T14:55:58;20.50;99.90
26326;DHT22;14032;52.510;7.342;2022-09-13T14:58:51;20.50;99.90
26326;DHT22;14032;52.510;7.342;2022-09-13T15:01:21;20.50;99.90
26326;DHT22;14032;52.510;7.342;2022-09-13T15:03:51;20.50;99.90
26326;DHT22;14032;52.510;7.342;2022-09-13T15:06:26;20.60;99.90
26326;DHT22;14032;52.510;7.342;2022-09-13T15:09:45;20.60;99.90
26326;DHT22;14032;52.510;7.342;2022-09-13T15:16:48;20.60;99.90
26326;DHT22;14032;52.510;7.342;2022-09-13T15:21:49;20.60;99.90
26326;DHT22;14032;52.510;7.342;2022-09-13T15:24:26;20.60;99.90
26326;DHT22;14032;52.510;7.342;2022-09-13T15:27:05;20.60;99.90
26326;DHT22;14032;52.510;7.342;2022-09-13T15:29:31;20.60;99.90
26326;DHT22;14032;52.510;7.342;2022-09-13T15:32:00;20.60;99.90
26326;DHT22;14032;52.510;7.342;2022-09-13T15:34:27;20.60;99.90
26326;DHT22;14032;52.510;7.342;2022-09-13T15:39:47;20.50;99.90
26326;DHT22;14032;52.510;7.342;2022-09-13T15:42:14;20.50;99.90
26326;DHT22;14032;52.510;7.342;2022-09-13T15:44:40;20.50;99.90
26326;DHT22;14032;52.510;7.342;2022-09-13T15:47:15;20.40;99.90
26326;DHT22;14032;52.510;7.342;2022-09-13T15:49:47;20.40;99.90
26326;DHT22;14032;52.510;7.342;2022-09-13T15:52:13;20.40;99.90
26326;DHT22;14032;52.510;7.342;2022-09-13T15:54:40;20.40;99.90
26326;DHT22;14032;52.510;7.342;2022-09-13T15:57:12;20.30;99.90
26326;DHT22;14032;52.510;7.342;2022-09-13T15:59:41;20.30;99.90
26326;DHT22;14032;52.510;7.342;2022-09-13T16:02:28;20.30;99.90
26326;DHT22;14032;52.510;7.342;2022-09-13T16:04:55;20.20;99.90
26326;DHT22;14032;52.510;7.342;2022-09-13T16:07:22;20.20;99.90
26326;DHT22;14032;52.510;7.342;2022-09-13T16:09:48;20.10;99.90
26326;DHT22;14032;52.510;7.342;2022-09-13T16:12:14;20.10;99.90
26326;DHT22;14032;52.510;7.342;2022-09-13T16:14:40;20.10;99.90
26326;DHT22;14032;52.510;7.342;2022-09-13T16:17:12;20.00;99.90
26326;DHT22;14032;52.510;7.342;2022-09-13T16:19:43;20.00;99.90
26326;DHT22;14032;52.510;7.342;2022-09-13T16:22:08;20.00;99.90
26326;DHT22;14032;52.510;7.342;2022-09-13T16:24:53;20.00;99.90
26326;DHT22;14032;52.510;7.342;2022-09-13T16:27:21;19.90;99.90
26326;DHT22;14032;52.510;7.342;2022-09-13T16:29:47;19.90;99.90
26326;DHT22;14032;52.510;7.342;2022-09-13T16:32:13;19.80;99.90
26326;DHT22;14032;52.510;7.342;2022-09-13T16:34:39;19.80;99.90
26326;DHT22;14032;52.510;7.342;2022-09-13T16:37:16;19.80;99.90
26326;DHT22;14032;52.510;7.342;2022-09-13T16:39:42;19.70;99.90
26326;DHT22;14032;52.510;7.342;2022-09-13T16:42:08;19.70;99.90
26326;DHT22;14032;52.510;7.342;2022-09-13T16:44:53;19.60;99.90
26326;DHT22;14032;52.510;7.342;2022-09-13T16:47:27;19.60;99.90
26326;DHT22;14032;52.510;7.342;2022-09-13T16:49:57;19.60;99.90
26326;DHT22;14032;52.510;7.342;2022-09-13T16:52:35;19.60;99.90
26326;DHT22;14032;52.510;7.342;2022-09-13T16:55:02;19.60;99.90
26326;DHT22;14032;52.510;7.342;2022-09-13T16:57:35;19.50;99.90
26326;DHT22;14032;52.510;7.342;2022-09-13T17:00:04;19.50;99.90
26326;DHT22;14032;52.510;7.342;2022-09-13T17:02:34;19.50;99.90
26326;DHT22;14032;52.510;7.342;2022-09-13T17:05:05;19.50;99.90
26326;DHT22;14032;52.510;7.342;2022-09-13T17:07:39;19.40;99.90
26326;DHT22;14032;52.510;7.342;2022-09-13T17:10:21;19.40;99.90
26326;DHT22;14032;52.510;7.342;2022-09-13T17:12:49;19.30;99.90
26326;DHT22;14032;52.510;7.342;2022-09-13T17:15:37;19.30;99.90
26326;DHT22;14032;52.510;7.342;2022-09-13T17:18:13;19.20;99.90
26326;DHT22;14032;52.510;7.342;2022-09-13T17:20:50;19.20;99.90
26326;DHT22;14032;52.510;7.342;2022-09-13T17:23:18;19.10;99.90
26326;DHT22;14032;52.510;7.342;2022-09-13T17:25:57;19.10;99.90
26326;DHT22;14032;52.510;7.342;2022-09-13T17:28:58;19.10;99.90
26326;DHT22;14032;52.510;7.342;2022-09-13T17:31:42;19.00;99.90
26326;DHT22;14032;52.510;7.342;2022-09-13T17:34:50;19.00;99.90
26326;DHT22;14032;52.510;7.342;2022-09-13T17:37:47;18.90;99.90
26326;DHT22;14032;52.510;7.342;2022-09-13T17:41:03;18.90;99.90
26326;DHT22;14032;52.510;7.342;2022-09-13T17:43:59;18.90;99.90
26326;DHT22;14032;52.510;7.342;2022-09-13T17:46:41;18.70;99.90
26326;DHT22;14032;52.510;7.342;2022-09-13T17:49:21;18.70;99.90
26326;DHT22;14032;52.510;7.342;2022-09-13T17:52:09;18.70;99.90
26326;DHT22;14032;52.510;7.342;2022-09-13T17:54:57;18.60;99.90
26326;DHT22;14032;52.510;7.342;2022-09-13T17:57:42;18.50;99.90
26326;DHT22;14032;52.510;7.342;2022-09-13T18:00:18;18.50;99.90
26326;DHT22;14032;52.510;7.342;2022-09-13T18:02:47;18.40;99.90
26326;DHT22;14032;52.510;7.342;2022-09-13T18:05:34;18.40;99.90
26326;DHT22;14032;52.510;7.342;2022-09-13T18:08:00;18.30;99.90
26326;DHT22;14032;52.510;7.342;2022-09-13T18:10:26;18.20;99.90
26326;DHT22;14032;52.510;7.342;2022-09-13T18:12:51;18.20;99.90
26326;DHT22;14032;52.510;7.342;2022-09-13T18:15:17;18.20;99.90
26326;DHT22;14032;52.510;7.342;2022-09-13T18:17:43;18.10;99.90
26326;DHT22;14032;52.510;7.342;2022-09-13T18:20:08;18.10;99.90
26326;DHT22;14032;52.510;7.342;2022-09-13T18:22:34;18.10;99.90
26326;DHT22;14032;52.510;7.342;2022-09-13T18:24:59;18.00;99.90
26326;DHT22;14032;52.510;7.342;2022-09-13T18:27:25;18.00;99.90
26326;DHT22;14032;52.510;7.342;2022-09-13T18:29:50;17.90;99.90
26326;DHT22;14032;52.510;7.342;2022-09-13T18:32:16;17.80;99.90
26326;DHT22;14032;52.510;7.342;2022-09-13T18:34:41;17.80;99.90
26326;DHT22;14032;52.510;7.342;2022-09-13T18:37:08;17.70;99.90
26326;DHT22;14032;52.510;7.342;2022-09-13T18:39:34;17.70;99.90
26326;DHT22;14032;52.510;7.342;2022-09-13T18:42:00;17.70;99.90
26326;DHT22;14032;52.510;7.342;2022-09-13T18:44:26;17.60;99.90
26326;DHT22;14032;52.510;7.342;2022-09-13T18:46:55;17.60;99.90
26326;DHT22;14032;52.510;7.342;2022-09-13T18:49:21;17.60;99.90
26326;DHT22;14032;52.510;7.342;2022-09-13T18:51:47;17.50;99.90
26326;DHT22;14032;52.510;7.342;2022-09-13T18:54:15;17.50;99.90
26326;DHT22;14032;52.510;7.342;2022-09-13T18:56:45;17.40;99.90
26326;DHT22;14032;52.510;7.342;2022-09-13T18:59:12;17.40;99.90
26326;DHT22;14032;52.510;7.342;2022-09-13T19:01:40;17.40;99.90
26326;DHT22;14032;52.510;7.342;2022-09-13T19:04:11;17.30;99.90
26326;DHT22;14032;52.510;7.342;2022-09-13T19:06:46;17.30;99.90
26326;DHT22;14032;52.510;7.342;2022-09-13T19:09:12;17.30;99.90
26326;DHT22;14032;52.510;7.342;2022-09-13T19:11:43;17.20;99.90
26326;DHT22;14032;52.510;7.342;2022-09-13T19:14:15;17.20;99.90
26326;DHT22;14032;52.510;7.342;2022-09-13T19:16:41;17.20;99.90